createdAt,value
2018-01-15T00:02:06.014Z,22.03
2018-01-15T00:04:34.872Z,27.63
2018-01-15T00:07:04.517Z,19.50
2018-01-15T00:09:33.365Z,22.53
2018-01-15T00:12:03.016Z,20.60
2018-01-15T00:14:32.273Z,21.63
2018-01-15T00:17:01.903Z,21.40
2018-01-15T00:19:31.494Z,20.33
2018-01-15T00:22:01.139Z,20.63
2018-01-15T00:24:29.982Z,19.63
2018-01-15T00:26:58.835Z,18.87
2018-01-15T00:29:28.455Z,20.50
2018-01-15T00:31:57.289Z,21.13
2018-01-15T00:34:26.444Z,19.07
2018-01-15T00:36:55.281Z,19.10
2018-01-15T00:39:24.138Z,22.73
2018-01-15T00:41:53.212Z,19.00
2018-01-15T00:44:22.030Z,23.37
2018-01-15T00:46:51.419Z,19.43
2018-01-15T00:49:20.483Z,21.37
2018-01-15T00:51:49.369Z,19.30
2018-01-15T00:54:18.970Z,19.67
2018-01-15T00:56:48.573Z,23.80
2018-01-15T00:59:18.177Z,18.63
2018-01-15T01:01:47.791Z,22.30
2018-01-15T01:04:17.434Z,20.30
2018-01-15T01:06:46.274Z,18.20
2018-01-15T01:09:15.903Z,21.20
2018-01-15T01:11:44.738Z,20.13
2018-01-15T01:14:13.579Z,18.37
2018-01-15T01:16:43.178Z,18.50
2018-01-15T01:19:12.811Z,19.73
2018-01-15T01:21:41.669Z,18.57
2018-01-15T01:24:11.282Z,18.37
2018-01-15T01:26:40.971Z,18.50
2018-01-15T01:29:09.789Z,18.13
2018-01-15T01:31:38.641Z,19.57
2018-01-15T01:34:08.276Z,19.93
2018-01-15T01:36:37.121Z,19.27
2018-01-15T01:39:05.961Z,18.57
2018-01-15T01:41:34.807Z,19.73
2018-01-15T01:44:05.146Z,22.70
2018-01-15T01:46:34.041Z,18.87
2018-01-15T01:49:03.738Z,19.70
2018-01-15T01:51:33.346Z,17.70
2018-01-15T01:54:02.978Z,17.40
2018-01-15T01:56:31.874Z,18.50
2018-01-15T01:59:01.221Z,17.70
2018-01-15T02:01:30.071Z,17.43
2018-01-15T02:03:58.918Z,19.97
2018-01-15T02:06:28.531Z,18.17
2018-01-15T02:08:58.147Z,20.13
2018-01-15T02:11:27.774Z,20.60
2018-01-15T02:13:56.590Z,19.30
2018-01-15T02:16:25.453Z,19.73
2018-01-15T02:18:54.353Z,21.30
2018-01-15T02:21:23.230Z,18.10
2018-01-15T02:23:52.069Z,20.10
2018-01-15T02:26:22.441Z,17.00
2018-01-15T02:28:51.288Z,18.60
2018-01-15T02:31:20.122Z,15.43
2018-01-15T02:33:49.954Z,23.47
2018-01-15T02:36:19.569Z,20.77
2018-01-15T02:38:49.170Z,20.83
2018-01-15T02:41:18.780Z,20.00
2018-01-15T02:43:48.394Z,24.10
2018-01-15T02:46:17.226Z,18.90
2018-01-15T02:48:46.062Z,22.53
2018-01-15T02:51:15.677Z,18.57
2018-01-15T02:53:44.741Z,19.50
2018-01-15T02:56:13.583Z,21.13
2018-01-15T02:58:42.434Z,17.93
2018-01-15T03:01:12.038Z,22.37
2018-01-15T03:03:41.658Z,22.33
2018-01-15T03:06:11.593Z,18.20
2018-01-15T03:08:40.434Z,22.17
2018-01-15T03:11:09.289Z,21.50
2018-01-15T03:13:38.118Z,19.77
2018-01-15T03:16:07.734Z,19.47
2018-01-15T03:18:37.366Z,22.03
2018-01-15T03:21:06.218Z,23.30
2018-01-15T03:23:35.061Z,23.30
2018-01-15T03:26:03.900Z,22.80
2018-01-15T03:28:32.746Z,20.17
2018-01-15T03:31:01.588Z,20.70
2018-01-15T03:33:30.442Z,20.73
2018-01-15T03:36:00.790Z,19.87
2018-01-15T03:38:29.612Z,23.57
2018-01-15T03:40:58.994Z,19.10
2018-01-15T03:43:27.845Z,20.20
2018-01-15T03:45:57.489Z,20.97
2018-01-15T03:48:26.335Z,20.23
2018-01-15T03:50:56.440Z,18.20
2018-01-15T03:53:26.787Z,21.80
2018-01-15T03:55:56.390Z,20.03
2018-01-15T03:58:26.001Z,24.37
2018-01-15T04:00:55.610Z,26.00
2018-01-15T04:03:25.230Z,21.70
2018-01-15T04:05:54.076Z,19.57
2018-01-15T04:08:22.935Z,21.90
2018-01-15T04:10:51.770Z,22.70
2018-01-15T04:13:21.426Z,21.60
2018-01-15T04:15:50.254Z,19.37
2018-01-15T04:18:19.119Z,23.80
2018-01-15T04:20:47.936Z,21.67
2018-01-15T04:23:16.774Z,25.00
2018-01-15T04:25:45.631Z,22.57
2018-01-15T04:28:15.246Z,23.83
2018-01-15T04:30:44.810Z,22.50
2018-01-15T04:33:14.414Z,23.90
2018-01-15T04:35:44.018Z,24.50
2018-01-15T04:38:13.616Z,19.17
2018-01-15T04:40:43.240Z,22.93
2018-01-15T04:43:12.845Z,21.60
2018-01-15T04:45:42.464Z,24.40
2018-01-15T04:48:12.061Z,22.97
2018-01-15T04:50:41.238Z,22.43
2018-01-15T04:53:10.069Z,20.40
2018-01-15T04:55:38.930Z,19.30
2018-01-15T04:58:08.537Z,23.10
2018-01-15T05:00:38.153Z,23.27
2018-01-15T05:03:07.013Z,24.00
2018-01-15T05:05:35.874Z,21.03
2018-01-15T05:08:06.289Z,20.80
2018-01-15T05:10:35.142Z,22.40
2018-01-15T05:13:04.745Z,19.07
2018-01-15T05:15:35.690Z,23.80
2018-01-15T05:18:05.301Z,20.30
2018-01-15T05:20:34.909Z,21.37
2018-01-15T05:23:04.519Z,21.23
2018-01-15T05:25:33.386Z,22.10
2018-01-15T05:28:02.223Z,20.40
2018-01-15T05:30:31.098Z,21.13
2018-01-15T05:33:00.778Z,19.60
2018-01-15T05:35:29.631Z,23.17
2018-01-15T05:37:59.986Z,18.30
2018-01-15T05:40:28.878Z,25.00
2018-01-15T05:42:58.478Z,22.53
2018-01-15T05:45:27.346Z,20.53
2018-01-15T05:47:56.938Z,21.20
2018-01-15T05:50:26.561Z,20.50
2018-01-15T05:52:56.166Z,22.17
2018-01-15T05:55:25.798Z,23.33
2018-01-15T05:57:54.609Z,19.97
2018-01-15T06:00:23.479Z,19.47
2018-01-15T06:02:52.330Z,21.93
2018-01-15T06:05:21.949Z,23.30
2018-01-15T06:07:51.555Z,22.83
2018-01-15T06:10:21.161Z,23.17
2018-01-15T06:12:50.825Z,21.20
2018-01-15T06:15:20.395Z,20.50
2018-01-15T06:17:49.986Z,23.10
2018-01-15T06:20:19.614Z,18.20
2018-01-15T06:22:49.213Z,21.73
2018-01-15T06:25:18.072Z,21.13
2018-01-15T06:27:46.926Z,20.70
2018-01-15T06:30:15.777Z,21.87
2018-01-15T06:32:46.697Z,21.57
2018-01-15T06:35:15.596Z,21.77
2018-01-15T06:37:44.485Z,18.67
2018-01-15T06:40:13.319Z,20.30
2018-01-15T06:42:42.171Z,21.07
2018-01-15T06:45:10.997Z,22.10
2018-01-15T06:47:39.846Z,21.37
2018-01-15T06:50:08.690Z,23.80
2018-01-15T06:52:38.315Z,26.23
2018-01-15T06:55:07.927Z,20.80
2018-01-15T06:57:36.750Z,20.30
2018-01-15T07:00:05.598Z,21.33
2018-01-15T07:02:35.190Z,19.97
2018-01-15T07:05:04.833Z,17.67
2018-01-15T07:07:33.664Z,20.55
2018-01-15T07:10:02.486Z,31.13
2018-01-15T07:12:32.102Z,26.73
2018-01-15T07:15:00.934Z,21.05
2018-01-15T07:17:29.798Z,19.97
2018-01-15T07:19:58.638Z,17.23
2018-01-15T07:22:27.478Z,18.03
2018-01-15T07:24:56.325Z,23.00
2018-01-15T07:27:25.160Z,19.97
2018-01-15T07:29:54.024Z,20.47
2018-01-15T07:32:22.869Z,20.40
2018-01-15T07:34:52.466Z,22.83
2018-01-15T07:37:22.074Z,18.80
2018-01-15T07:39:51.678Z,20.90
2018-01-15T07:42:21.295Z,21.70
2018-01-15T07:44:50.217Z,18.33
2018-01-15T07:47:19.097Z,20.93
2018-01-15T07:49:47.947Z,22.83
2018-01-15T07:52:17.585Z,18.90
2018-01-15T07:54:46.431Z,20.10
2018-01-15T07:57:16.052Z,20.90
2018-01-15T07:59:45.650Z,17.60
2018-01-15T08:02:14.498Z,22.57
2018-01-15T08:04:43.335Z,17.63
2018-01-15T08:07:12.935Z,19.90
2018-01-15T08:09:41.782Z,24.77
2018-01-15T08:12:10.657Z,19.40
2018-01-15T08:14:43.247Z,16.63
2018-01-15T08:17:12.134Z,21.57
2018-01-15T08:19:40.977Z,17.87
2018-01-15T08:22:10.571Z,15.90
2018-01-15T08:24:40.285Z,20.50
2018-01-15T08:27:09.121Z,15.53
2018-01-15T08:29:38.063Z,17.70
2018-01-15T08:32:07.674Z,17.50
2018-01-15T08:34:37.333Z,16.47
2018-01-15T08:37:06.146Z,15.60
2018-01-15T08:39:35.084Z,16.27
2018-01-15T08:42:04.702Z,17.10
2018-01-15T08:44:33.542Z,17.63
2018-01-15T08:47:02.585Z,15.10
2018-01-15T08:49:31.433Z,17.30
2018-01-15T08:52:00.739Z,17.30
2018-01-15T08:54:29.561Z,17.53
2018-01-15T08:56:58.414Z,17.40
2018-01-15T08:59:28.034Z,18.00
2018-01-15T09:01:57.646Z,13.43
2018-01-15T09:04:27.250Z,18.87
2018-01-15T09:06:56.882Z,14.80
2018-01-15T09:09:25.721Z,16.10
2018-01-15T09:11:54.556Z,18.40
2018-01-15T09:14:23.550Z,25.30
2018-01-15T09:16:52.389Z,13.67
2018-01-15T09:19:21.324Z,17.90
2018-01-15T09:21:51.127Z,16.30
2018-01-15T09:24:19.939Z,16.20
2018-01-15T09:26:48.773Z,15.57
2018-01-15T09:29:17.611Z,14.30
2018-01-15T09:31:46.445Z,18.20
2018-01-15T09:34:15.854Z,21.77
2018-01-15T09:36:44.733Z,15.87
2018-01-15T09:39:13.553Z,18.07
2018-01-15T09:41:42.398Z,14.30
2018-01-15T09:44:12.032Z,16.67
2018-01-15T09:46:40.899Z,19.17
2018-01-15T09:49:09.762Z,14.87
2018-01-15T09:51:38.590Z,15.40
2018-01-15T09:54:07.448Z,16.10
2018-01-15T09:56:37.045Z,19.10
2018-01-15T09:59:06.806Z,15.70
2018-01-15T10:01:35.668Z,18.83
2018-01-15T10:04:05.283Z,18.73
2018-01-15T10:06:34.146Z,14.57
2018-01-15T10:09:03.759Z,17.57
2018-01-15T10:11:33.381Z,13.87
2018-01-15T10:14:02.985Z,14.40
2018-01-15T10:16:32.626Z,14.00
2018-01-15T10:19:01.498Z,18.10
2018-01-15T10:21:30.342Z,12.93
2018-01-15T10:23:59.206Z,15.07
2018-01-15T10:26:28.074Z,15.23
2018-01-15T10:28:56.926Z,15.20
2018-01-15T10:31:25.758Z,11.00
2018-01-15T10:33:54.601Z,14.70
2018-01-15T10:36:23.438Z,12.37
2018-01-15T10:38:53.910Z,16.60
2018-01-15T10:41:22.737Z,11.37
2018-01-15T10:43:51.605Z,13.03
2018-01-15T10:46:20.438Z,12.50
2018-01-15T10:48:49.271Z,14.00
2018-01-15T10:51:18.120Z,13.30
2018-01-15T10:53:46.962Z,14.80
2018-01-15T10:56:15.827Z,12.20
2018-01-15T10:58:45.449Z,14.33
2018-01-15T11:01:20.042Z,15.13
2018-01-15T11:03:49.657Z,12.83
2018-01-15T11:06:19.269Z,13.93
2018-01-15T11:08:48.119Z,13.53
2018-01-15T11:11:16.964Z,14.47
2018-01-15T11:13:45.776Z,13.20
2018-01-15T11:16:14.668Z,12.73
2018-01-15T11:18:43.478Z,12.63
2018-01-15T11:21:12.361Z,14.73
2018-01-15T11:23:41.207Z,14.20
2018-01-15T11:26:10.041Z,15.47
2018-01-15T11:28:38.886Z,13.13
2018-01-15T11:31:07.726Z,11.47
2018-01-15T11:33:37.120Z,15.00
2018-01-15T11:36:06.597Z,14.43
2018-01-15T11:38:36.237Z,14.20
2018-01-15T11:41:05.137Z,15.27
2018-01-15T11:43:34.000Z,12.67
2018-01-15T11:46:03.597Z,11.23
2018-01-15T11:48:33.805Z,16.67
2018-01-15T11:51:03.419Z,13.47
2018-01-15T11:53:33.053Z,11.03
2018-01-15T11:56:01.865Z,13.53
2018-01-15T11:58:30.722Z,11.17
2018-01-15T12:00:59.564Z,10.90
2018-01-15T12:03:28.400Z,11.20
2018-01-15T12:05:58.005Z,13.57
2018-01-15T12:08:27.580Z,11.87
2018-01-15T12:10:56.422Z,17.10
2018-01-15T12:13:25.253Z,15.23
2018-01-15T12:15:54.106Z,9.97
2018-01-15T12:18:22.936Z,12.17
2018-01-15T12:20:51.773Z,11.20
2018-01-15T12:23:20.610Z,10.40
2018-01-15T12:25:49.469Z,14.17
2018-01-15T12:28:18.342Z,12.63
2018-01-15T12:30:47.954Z,12.90
2018-01-15T12:33:16.796Z,13.90
2018-01-15T12:35:45.674Z,12.17
2018-01-15T12:38:14.513Z,12.17
2018-01-15T12:40:43.326Z,13.87
2018-01-15T12:43:13.648Z,13.80
2018-01-15T12:45:43.255Z,13.23
2018-01-15T12:48:12.871Z,12.77
2018-01-15T12:50:42.481Z,12.70
2018-01-15T12:53:12.090Z,11.77
2018-01-15T12:55:40.941Z,12.03
2018-01-15T12:58:09.796Z,11.60
2018-01-15T13:00:38.626Z,15.20
2018-01-15T13:03:07.461Z,15.27
2018-01-15T13:05:48.030Z,13.63
2018-01-15T13:11:25.189Z,12.20
2018-01-15T13:13:54.341Z,13.03
2018-01-15T13:16:23.210Z,13.03
2018-01-15T13:18:52.061Z,16.07
2018-01-15T13:21:20.907Z,14.00
2018-01-15T13:23:49.753Z,12.50
2018-01-15T13:26:19.390Z,13.40
2018-01-15T13:28:48.234Z,13.53
2018-01-15T13:31:17.109Z,17.40
2018-01-15T13:33:45.973Z,12.13
2018-01-15T13:36:15.674Z,11.70
2018-01-15T13:38:44.534Z,13.93
2018-01-15T13:41:13.518Z,12.60
2018-01-15T13:43:43.201Z,12.43
2018-01-15T13:46:12.042Z,14.63
2018-01-15T13:48:40.904Z,11.93
2018-01-15T13:51:10.522Z,14.17
2018-01-15T13:53:40.146Z,12.00
2018-01-15T13:56:09.194Z,14.63
2018-01-15T13:58:38.034Z,14.57
2018-01-15T14:01:06.882Z,12.47
2018-01-15T14:03:36.502Z,15.17
2018-01-15T14:06:05.789Z,12.87
2018-01-15T14:08:35.419Z,15.30
2018-01-15T14:11:05.067Z,11.97
2018-01-15T14:13:33.938Z,11.20
2018-01-15T14:16:02.770Z,12.33
2018-01-15T14:18:31.637Z,12.97
2018-01-15T14:21:00.490Z,17.40
2018-01-15T14:23:30.106Z,14.83
2018-01-15T14:25:59.286Z,13.03
2018-01-15T14:28:28.884Z,16.23
2018-01-15T14:30:58.477Z,15.30
2018-01-15T14:33:28.115Z,13.97
2018-01-15T14:35:56.969Z,14.03
2018-01-15T14:38:25.838Z,16.50
2018-01-15T14:40:55.085Z,16.97
2018-01-15T14:43:23.931Z,15.10
2018-01-15T14:45:52.778Z,12.73
2018-01-15T14:48:22.393Z,14.50
2018-01-15T14:50:52.018Z,12.77
2018-01-15T14:53:20.860Z,17.80
2018-01-15T14:58:25.784Z,14.77
2018-01-15T15:00:54.637Z,10.23
2018-01-15T15:03:24.239Z,12.93
2018-01-15T15:05:53.857Z,12.90
2018-01-15T15:08:23.454Z,12.23
2018-01-15T15:10:53.086Z,10.27
2018-01-15T15:13:21.917Z,11.07
2018-01-15T15:15:50.778Z,11.60
2018-01-15T15:18:20.426Z,10.80
2018-01-15T15:20:49.321Z,10.87
2018-01-15T15:23:18.159Z,9.77
2018-01-15T15:25:47.878Z,13.80
2018-01-15T15:28:16.704Z,8.13
2018-01-15T15:30:45.541Z,9.83
2018-01-15T15:33:14.587Z,10.00
2018-01-15T15:35:43.418Z,9.07
2018-01-15T15:38:12.243Z,9.00
2018-01-15T15:40:41.477Z,7.17
2018-01-15T15:43:10.317Z,7.83
2018-01-15T15:45:39.912Z,8.40
2018-01-15T15:48:08.838Z,7.53
2018-01-15T15:50:37.687Z,11.23
2018-01-15T15:53:06.533Z,7.00
2018-01-15T15:55:35.496Z,6.50
2018-01-15T15:58:05.130Z,6.57
2018-01-15T16:00:34.613Z,9.63
2018-01-15T16:03:04.236Z,6.60
2018-01-15T16:05:34.341Z,8.00
2018-01-15T16:08:03.944Z,5.97
2018-01-15T16:10:33.448Z,6.43
2018-01-15T16:13:02.250Z,6.27
2018-01-15T16:15:31.099Z,5.90
2018-01-15T16:17:59.947Z,5.87
2018-01-15T16:20:28.780Z,5.80
2018-01-15T16:22:58.548Z,5.90
2018-01-15T16:25:27.396Z,6.23
2018-01-15T16:27:56.993Z,5.40
2018-01-15T16:30:25.856Z,5.47
2018-01-15T16:32:54.700Z,5.10
2018-01-15T16:35:23.550Z,4.97
2018-01-15T16:37:52.409Z,6.10
2018-01-15T16:40:21.286Z,4.77
2018-01-15T16:42:50.086Z,5.60
2018-01-15T16:45:18.944Z,5.23
2018-01-15T16:47:47.773Z,6.23
2018-01-15T16:50:23.163Z,5.27
2018-01-15T16:52:52.071Z,7.57
2018-01-15T16:55:20.880Z,8.03
2018-01-15T16:57:49.732Z,6.90
2018-01-15T17:00:18.570Z,6.33
2018-01-15T17:02:48.266Z,5.30
2018-01-15T17:05:17.975Z,6.07
2018-01-15T17:07:46.798Z,5.07
2018-01-15T17:10:15.657Z,5.40
2018-01-15T17:12:44.485Z,7.73
2018-01-15T17:15:13.348Z,7.93
2018-01-15T17:17:42.932Z,5.70
2018-01-15T17:20:11.760Z,5.93
2018-01-15T17:22:40.645Z,6.43
2018-01-15T17:25:10.253Z,5.73
2018-01-15T17:27:39.269Z,6.37
2018-01-15T17:30:08.127Z,6.47
2018-01-15T17:32:37.746Z,5.93
2018-01-15T17:35:06.590Z,6.17
2018-01-15T17:37:39.625Z,8.23
2018-01-15T17:40:09.944Z,8.97
2018-01-15T17:42:39.569Z,6.43
2018-01-15T17:45:08.370Z,9.70
2018-01-15T17:47:37.453Z,9.00
2018-01-15T17:50:06.302Z,6.77
2018-01-15T17:52:35.173Z,6.37
2018-01-15T17:55:04.021Z,6.33
2018-01-15T17:57:32.877Z,6.30
2018-01-15T18:00:02.469Z,6.23
2018-01-15T18:02:32.264Z,4.93
2018-01-15T18:05:01.144Z,5.27
2018-01-15T18:07:29.980Z,4.83
2018-01-15T18:09:59.616Z,5.67
2018-01-15T18:12:28.462Z,5.53
2018-01-15T18:14:57.336Z,4.63
2018-01-15T18:17:26.160Z,3.93
2018-01-15T18:19:55.795Z,3.60
2018-01-15T18:22:24.682Z,3.17
2018-01-15T18:24:53.561Z,3.30
2018-01-15T18:27:22.418Z,3.87
2018-01-15T18:29:52.787Z,3.30
2018-01-15T18:32:21.636Z,3.73
2018-01-15T18:34:50.544Z,3.17
2018-01-15T18:37:20.152Z,3.87
2018-01-15T18:39:49.023Z,3.80
2018-01-15T18:42:17.950Z,3.57
2018-01-15T18:44:47.609Z,3.30
2018-01-15T18:47:17.266Z,4.13
2018-01-15T18:49:46.134Z,11.10
2018-01-15T18:52:14.980Z,4.80
2018-01-15T18:54:43.827Z,3.80
2018-01-15T18:57:12.906Z,6.43
2018-01-15T18:59:42.625Z,3.70
2018-01-15T19:02:11.441Z,2.83
2018-01-15T19:04:40.285Z,4.73
2018-01-15T19:07:09.965Z,3.10
2018-01-15T19:09:38.809Z,2.63
2018-01-15T19:12:07.660Z,3.67
2018-01-15T19:14:37.381Z,2.83
2018-01-15T19:17:06.986Z,3.37
2018-01-15T19:19:36.600Z,2.13
2018-01-15T19:22:06.221Z,2.83
2018-01-15T19:24:35.085Z,2.53
2018-01-15T19:27:03.910Z,2.17
2018-01-15T19:29:32.754Z,1.97
2018-01-15T19:32:01.898Z,2.50
2018-01-15T19:34:37.855Z,2.60
2018-01-15T19:37:07.727Z,1.80
2018-01-15T19:39:37.314Z,3.13
2018-01-15T19:42:06.928Z,1.60
2018-01-15T19:44:42.135Z,2.17
2018-01-15T19:47:16.708Z,1.90
2018-01-15T19:52:59.910Z,2.83
2018-01-15T19:55:34.523Z,1.93
2018-01-15T19:58:09.201Z,2.97
2018-01-15T20:00:44.037Z,1.50
2018-01-15T20:03:18.508Z,1.13
2018-01-15T20:05:53.062Z,1.60
2018-01-15T20:08:28.487Z,1.50
2018-01-15T20:10:57.373Z,1.87
2018-01-15T20:13:26.217Z,2.47
2018-01-15T20:15:55.078Z,2.17
2018-01-15T20:18:24.714Z,2.00
2018-01-15T20:20:53.619Z,1.43
2018-01-15T20:23:22.490Z,1.47
2018-01-15T20:25:51.331Z,2.27
2018-01-15T20:28:20.282Z,1.97
2018-01-15T20:30:49.132Z,1.20
2018-01-15T20:33:18.766Z,1.20
2018-01-15T20:35:48.346Z,1.50
2018-01-15T20:38:17.978Z,1.60
2018-01-15T20:40:46.819Z,1.30
2018-01-15T20:43:15.645Z,1.27
2018-01-15T20:45:44.486Z,1.10
2018-01-15T20:48:13.324Z,1.53
2018-01-15T20:50:42.155Z,1.57
2018-01-15T20:53:11.037Z,2.20
2018-01-15T20:55:39.849Z,1.30
2018-01-15T20:58:08.679Z,1.40
2018-01-15T21:00:39.507Z,1.67
2018-01-15T21:03:08.362Z,8.03
2018-01-15T21:05:42.821Z,1.53
2018-01-15T21:08:11.681Z,1.50
2018-01-15T21:10:41.620Z,1.47
2018-01-15T21:13:10.425Z,1.90
2018-01-15T21:15:39.271Z,1.50
2018-01-15T21:18:08.890Z,1.20
2018-01-15T21:20:38.521Z,1.80
2018-01-15T21:23:07.352Z,0.90
2018-01-15T21:25:36.190Z,0.80
2018-01-15T21:28:05.029Z,2.10
2018-01-15T21:30:33.850Z,1.07
2018-01-15T21:33:03.450Z,1.00
2018-01-15T21:35:33.470Z,1.43
2018-01-15T21:38:03.063Z,1.43
2018-01-15T21:40:32.702Z,2.77
2018-01-15T21:43:01.526Z,0.90
2018-01-15T21:45:30.385Z,1.50
2018-01-15T21:47:59.317Z,1.67
2018-01-15T21:50:28.130Z,1.83
2018-01-15T21:52:57.730Z,2.20
2018-01-15T21:55:27.340Z,1.67
2018-01-15T21:57:56.952Z,1.60
2018-01-15T22:00:25.962Z,1.13
2018-01-15T22:02:54.778Z,0.70
2018-01-15T22:05:23.610Z,0.87
2018-01-15T22:07:53.206Z,1.77
2018-01-15T22:10:22.039Z,1.30
2018-01-15T22:12:50.901Z,1.40
2018-01-15T22:15:19.722Z,2.37
2018-01-15T22:17:48.691Z,2.20
2018-01-15T22:20:18.284Z,3.23
2018-01-15T22:22:47.894Z,1.70
2018-01-15T22:25:17.501Z,1.73
2018-01-15T22:27:47.088Z,1.70
2018-01-15T22:30:15.934Z,1.97
2018-01-15T22:32:44.779Z,1.60
2018-01-15T22:35:14.394Z,1.90
2018-01-15T22:37:44.001Z,1.80
2018-01-15T22:40:12.909Z,1.50
2018-01-15T22:42:41.738Z,2.70
2018-01-15T22:45:10.600Z,2.30
2018-01-15T22:47:39.461Z,4.43
2018-01-15T22:50:08.289Z,2.47
2018-01-15T22:52:37.890Z,2.30
2018-01-15T22:55:07.509Z,2.23
2018-01-15T22:57:37.130Z,2.43
2018-01-15T23:00:05.931Z,2.00
2018-01-15T23:02:34.768Z,4.50
2018-01-15T23:05:04.359Z,4.97
2018-01-15T23:07:33.194Z,3.83
2018-01-15T23:10:02.034Z,3.00
2018-01-15T23:12:30.874Z,2.77
2018-01-15T23:14:59.722Z,3.83
2018-01-15T23:17:28.546Z,4.23
2018-01-15T23:19:57.444Z,3.93
2018-01-15T23:22:26.287Z,3.80
2018-01-15T23:24:55.082Z,4.00
2018-01-15T23:27:23.925Z,3.37
2018-01-15T23:29:52.761Z,4.47
2018-01-15T23:32:21.572Z,4.20
2018-01-15T23:34:51.166Z,5.07
2018-01-15T23:37:20.814Z,4.87
2018-01-15T23:39:49.640Z,4.33
2018-01-15T23:42:18.894Z,5.00
2018-01-15T23:44:47.697Z,4.70
2018-01-15T23:47:16.562Z,4.90
2018-01-15T23:49:45.403Z,4.57
2018-01-15T23:52:14.213Z,3.60
2018-01-15T23:54:43.827Z,3.07
2018-01-15T23:57:13.421Z,3.70
2018-01-15T23:59:42.244Z,3.17
